Time;durP1;ratioP1;P1;durP2;ratioP2;P2;SDS_P1;SDS_P2;PMS_P1;PMS_P2;Temp;Humidity;BMP_temperature;BMP_pressure;BME280_temperature;BME280_humidity;BME280_pressure;Samples;Min_cycle;Max_cycle;Signal;HPM_P1;HPM_P2
2023/08/28 00:00:52;;;;;;;;;;;;;;;;;;4838164;29;19932;-86
2023/08/28 00:03:17;;;;;;;;;;;;;;;;;;4850511;29;19975;-86
2023/08/28 00:05:43;;;;;;;;;;;;;;;;;;4866836;29;20387;-86
2023/08/28 00:08:10;;;;;;;;;;;;;;;;;;4849545;29;20066;-86
2023/08/28 00:10:35;;;;;;;;;;;;;;;;;;4841448;29;19923;-85
2023/08/28 00:13:27;;;;;;;;;;;;;;;;;;4838095;29;19920;-85
2023/08/28 00:15:52;;;;;;;;;;;;;;;;;;4852123;29;20392;-85
2023/08/28 00:18:17;;;;;;;;;;;;;;;;;;4842915;29;19920;-85
2023/08/28 00:20:43;;;;;;;;;;;;;;;;;;4850169;29;19927;-86
2023/08/28 00:23:08;;;;;;;;;;;;;;;;;;4832343;29;19923;-86
2023/08/28 00:25:36;;;;;;;;;;;;;;;;;;4846915;29;19919;-85
2023/08/28 00:28:01;;;;;;;;;;;;;;;;;;4846707;29;19958;-85
2023/08/28 00:30:27;;;;;;;;;;;;;;;;;;4849769;29;19916;-84
2023/08/28 00:32:52;;;;;;;;;;;;;;;;;;4848693;29;20644;-85
2023/08/28 00:35:17;;;;;;;;;;;;;;;;;;4861412;29;20396;-85
2023/08/28 00:37:42;;;;;;;;;;;;;;;;;;4843756;29;19919;-85
2023/08/28 00:40:10;;;;;;;;;;;;;;;;;;4849760;29;19920;-85
2023/08/28 00:42:35;;;;;;;;;;;;;;;;;;4845644;29;20006;-85
2023/08/28 00:45:01;;;;;;;;;;;;;;;;;;4834982;29;20030;-85
2023/08/28 00:47:26;;;;;;;;;;;;;;;;;;4850915;29;19927;-85
2023/08/28 00:49:51;;;;;;;;;;;;;;;;;;4845903;29;20372;-84
2023/08/28 00:52:17;;;;;;;;;;;;;;;;;;4845901;29;20344;-84
2023/08/28 00:54:44;;;;;;;;;;;;;;;;;;4847061;29;19916;-85
2023/08/28 00:57:22;;;;;;;;;;;;;;;;;;4856275;29;19967;-85
2023/08/28 00:59:48;;;;;;;;;;;;;;;;;;4840554;29;20405;-85
2023/08/28 01:02:13;;;;;;;;;;;;;;;;;;4849029;29;19927;-85
2023/08/28 01:04:38;;;;;;;;;;;;;;;;;;4847973;29;19959;-86
2023/08/28 01:07:03;;;;;;;;;;;;;;;;;;4862566;29;19931;-84
2023/08/28 01:09:32;;;;;;;;;;;;;;;;;;4863531;29;19920;-85
2023/08/28 01:12:13;;;;;;;;;;;;;;;;;;4852811;29;19953;-85
2023/08/28 01:15:01;;;;;;;;;;;;;;;;;;4869072;29;20332;-84
2023/08/28 01:17:26;;;;;;;;;;;;;;;;;;4855612;29;20861;-85
2023/08/28 01:19:52;;;;;;;;;;;;;;;;;;4845669;29;22131;-85
2023/08/28 01:22:41;;;;;;;;;;;;;;;;;;4848650;29;19931;-84
2023/08/28 01:25:10;;;;;;;;;;;;;;;;;;4863401;29;20337;-85
2023/08/28 01:27:36;;;;;;;;;;;;;;;;;;4845014;29;20357;-85
2023/08/28 01:30:20;;;;;;;;;;;;;;;;;;4862826;29;19919;-85
2023/08/28 01:32:45;;;;;;;;;;;;;;;;;;4858988;29;19920;-85
2023/08/28 01:35:21;;;;;;;;;;;;;;;;;;4843433;29;19926;-85
2023/08/28 01:37:46;;;;;;;;;;;;;;;;;;4845902;29;20028;-85
2023/08/28 01:40:12;;;;;;;;;;;;;;;;;;4855632;29;20467;-85
2023/08/28 01:42:38;;;;;;;;;;;;;;;;;;4844263;29;19916;-84
2023/08/28 01:45:03;;;;;;;;;;;;;;;;;;4832352;29;19915;-85
2023/08/28 01:47:29;;;;;;;;;;;;;;;;;;4847159;29;19928;-85
2023/08/28 01:50:12;;;;;;;;;;;;;;;;;;4853550;29;19923;-85
2023/08/28 01:52:38;;;;;;;;;;;;;;;;;;4864059;29;20372;-85
2023/08/28 01:55:03;;;;;;;;;;;;;;;;;;4852201;29;19919;-85
2023/08/28 01:57:29;;;;;;;;;;;;;;;;;;4871203;29;19963;-85
2023/08/28 01:59:54;;;;;;;;;;;;;;;;;;4844346;29;19919;-85
2023/08/28 02:02:19;;;;;;;;;;;;;;;;;;4869736;29;20019;-85
2023/08/28 02:04:46;;;;;;;;;;;;;;;;;;4849945;29;19919;-86
2023/08/28 02:07:11;;;;;;;;;;;;;;;;;;4869823;29;19924;-85
2023/08/28 02:09:37;;;;;;;;;;;;;;;;;;4851773;29;19927;-85
2023/08/28 02:12:02;;;;;;;;;;;;;;;;;;4843774;29;19972;-85
2023/08/28 02:14:27;;;;;;;;;;;;;;;;;;4867613;29;19916;-85
2023/08/28 02:16:53;;;;;;;;;;;;;;;;;;4839327;29;19924;-86
2023/08/28 02:19:20;;;;;;;;;;;;;;;;;;4859122;29;20010;-85
2023/08/28 02:21:46;;;;;;;;;;;;;;;;;;4850603;29;20037;-85
2023/08/28 02:24:11;;;;;;;;;;;;;;;;;;4850457;29;19957;-85
2023/08/28 02:26:36;;;;;;;;;;;;;;;;;;4851031;29;19923;-85
2023/08/28 02:29:02;;;;;;;;;;;;;;;;;;4846791;29;19971;-85
2023/08/28 02:31:27;;;;;;;;;;;;;;;;;;4849122;29;19920;-85
2023/08/28 02:33:54;;;;;;;;;;;;;;;;;;4850310;29;19992;-85
2023/08/28 02:36:20;;;;;;;;;;;;;;;;;;4867571;29;20384;-85
2023/08/28 02:38:45;;;;;;;;;;;;;;;;;;4870706;29;19919;-85
2023/08/28 02:41:10;;;;;;;;;;;;;;;;;;4865681;29;19927;-86
2023/08/28 02:43:36;;;;;;;;;;;;;;;;;;4844062;29;19924;-86
2023/08/28 02:46:02;;;;;;;;;;;;;;;;;;4847565;29;19942;-85
2023/08/28 02:48:27;;;;;;;;;;;;;;;;;;4848139;29;19919;-85
2023/08/28 02:50:53;;;;;;;;;;;;;;;;;;4869435;29;19919;-85
2023/08/28 02:53:18;;;;;;;;;;;;;;;;;;4844356;29;19972;-86
2023/08/28 02:55:49;;;;;;;;;;;;;;;;;;4867656;29;19922;-85
2023/08/28 02:58:14;;;;;;;;;;;;;;;;;;4841617;29;19963;-86
2023/08/28 03:00:43;;;;;;;;;;;;;;;;;;4847816;29;20016;-86
2023/08/28 03:03:08;;;;;;;;;;;;;;;;;;4865438;29;19971;-86
2023/08/28 03:05:33;;;;;;;;;;;;;;;;;;4849606;29;20531;-85
2023/08/28 03:08:08;;;;;;;;;;;;;;;;;;4850425;29;19923;-86
2023/08/28 03:10:34;;;;;;;;;;;;;;;;;;4842222;29;20326;-85
2023/08/28 03:12:59;;;;;;;;;;;;;;;;;;4853049;29;19920;-86
2023/08/28 03:15:26;;;;;;;;;;;;;;;;;;4860337;29;19923;-86
2023/08/28 03:17:51;;;;;;;;;;;;;;;;;;4846180;29;20387;-86
2023/08/28 03:20:16;;;;;;;;;;;;;;;;;;4847599;29;19920;-86
2023/08/28 03:22:44;;;;;;;;;;;;;;;;;;4850354;29;19920;-86
2023/08/28 03:25:10;;;;;;;;;;;;;;;;;;4847047;29;19928;-86
2023/08/28 03:27:35;;;;;;;;;;;;;;;;;;4847748;29;19924;-85
2023/08/28 03:30:00;;;;;;;;;;;;;;;;;;4851116;29;19998;-86
2023/08/28 03:32:25;;;;;;;;;;;;;;;;;;4842303;29;19955;-88
2023/08/28 03:34:50;;;;;;;;;;;;;;;;;;4860715;29;19959;-87
2023/08/28 03:37:16;;;;;;;;;;;;;;;;;;4869137;29;19920;-87
2023/08/28 03:39:41;;;;;;;;;;;;;;;;;;4848052;29;19923;-87
2023/08/28 03:42:06;;;;;;;;;;;;;;;;;;4846742;29;19920;-87
2023/08/28 03:44:32;;;;;;;;;;;;;;;;;;4853545;29;19926;-87
2023/08/28 03:46:57;;;;;;;;;;;;;;;;;;4848364;29;19924;-87
2023/08/28 03:49:22;;;;;;;;;;;;;;;;;;4851810;29;21349;-86
2023/08/28 03:51:47;;;;;;;;;;;;;;;;;;4847332;29;19923;-87
2023/08/28 03:54:15;;;;;;;;;;;;;;;;;;4850247;29;20275;-86
2023/08/28 03:56:41;;;;;;;;;;;;;;;;;;4848744;29;19919;-87
2023/08/28 03:59:06;;;;;;;;;;;;;;;;;;4857463;29;19927;-86
2023/08/28 04:01:32;;;;;;;;;;;;;;;;;;4851300;29;19979;-86
2023/08/28 04:03:57;;;;;;;;;;;;;;;;;;4866378;29;19947;-86
2023/08/28 04:06:22;;;;;;;;;;;;;;;;;;4847798;29;21485;-87
2023/08/28 04:08:48;;;;;;;;;;;;;;;;;;4833739;29;19919;-87
2023/08/28 04:11:14;;;;;;;;;;;;;;;;;;4838528;29;20671;-86
2023/08/28 04:13:39;;;;;;;;;;;;;;;;;;4853326;29;19930;-87
2023/08/28 04:16:05;;;;;;;;;;;;;;;;;;4841155;29;19924;-87
2023/08/28 04:18:31;;;;;;;;;;;;;;;;;;4829584;29;19920;-87
2023/08/28 04:21:14;;;;;;;;;;;;;;;;;;4848480;29;19976;-86
2023/08/28 04:23:40;;;;;;;;;;;;;;;;;;4844841;29;20539;-87
2023/08/28 04:26:05;;;;;;;;;;;;;;;;;;4861708;29;19950;-87
2023/08/28 04:28:31;;;;;;;;;;;;;;;;;;4867552;29;19920;-88
2023/08/28 04:30:56;;;;;;;;;;;;;;;;;;4866508;29;19912;-87
2023/08/28 04:33:23;;;;;;;;;;;;;;;;;;4868133;29;20340;-86
2023/08/28 04:35:49;;;;;;;;;;;;;;;;;;4840941;29;19912;-88
2023/08/28 04:38:14;;;;;;;;;;;;;;;;;;4851171;29;20498;-86
2023/08/28 04:40:39;;;;;;;;;;;;;;;;;;4839192;29;20420;-86
2023/08/28 04:43:05;;;;;;;;;;;;;;;;;;4851515;29;19926;-87
2023/08/28 04:45:33;;;;;;;;;;;;;;;;;;4850174;29;20014;-87
2023/08/28 04:47:58;;;;;;;;;;;;;;;;;;4851993;29;19988;-88
2023/08/28 04:50:23;;;;;;;;;;;;;;;;;;4849017;29;19955;-88
2023/08/28 04:52:49;;;;;;;;;;;;;;;;;;4859139;29;19919;-87
2023/08/28 04:55:14;;;;;;;;;;;;;;;;;;4865929;29;20373;-86
2023/08/28 04:57:39;;;;;;;;;;;;;;;;;;4850349;29;19923;-89
2023/08/28 05:00:05;;;;;;;;;;;;;;;;;;4858257;29;19920;-88
2023/08/28 05:02:30;;;;;;;;;;;;;;;;;;4845486;29;20348;-90
2023/08/28 05:04:56;;;;;;;;;;;;;;;;;;4850826;29;20337;-89
2023/08/28 05:07:21;;;;;;;;;;;;;;;;;;4857623;29;19999;-89
2023/08/28 05:09:49;;;;;;;;;;;;;;;;;;4839375;29;19916;-88
2023/08/28 05:12:15;;;;;;;;;;;;;;;;;;4861696;29;20320;-89
2023/08/28 05:14:40;;;;;;;;;;;;;;;;;;4839693;29;19920;-89
2023/08/28 05:17:06;;;;;;;;;;;;;;;;;;4843859;29;19920;-89
2023/08/28 05:19:31;;;;;;;;;;;;;;;;;;4855926;29;19920;-89
2023/08/28 05:21:56;;;;;;;;;;;;;;;;;;4845290;29;19920;-88
2023/08/28 05:24:21;;;;;;;;;;;;;;;;;;4852472;29;19920;-88
2023/08/28 05:26:47;;;;;;;;;;;;;;;;;;4852173;29;20758;-89
2023/08/28 05:29:12;;;;;;;;;;;;;;;;;;4851603;29;19927;-87
2023/08/28 05:31:37;;;;;;;;;;;;;;;;;;4858189;29;19976;-88
2023/08/28 05:34:02;;;;;;;;;;;;;;;;;;4868798;29;19942;-89
2023/08/28 05:36:28;;;;;;;;;;;;;;;;;;4853405;29;19919;-88
2023/08/28 05:38:53;;;;;;;;;;;;;;;;;;4853437;29;19967;-89
2023/08/28 05:41:18;;;;;;;;;;;;;;;;;;4850836;29;19920;-89
2023/08/28 05:43:43;;;;;;;;;;;;;;;;;;4856818;29;19923;-90
2023/08/28 05:46:09;;;;;;;;;;;;;;;;;;4853842;29;19919;-90
2023/08/28 05:48:34;;;;;;;;;;;;;;;;;;4872815;29;19943;-88
2023/08/28 05:50:59;;;;;;;;;;;;;;;;;;4870086;29;20299;-88
2023/08/28 05:53:25;;;;;;;;;;;;;;;;;;4845631;29;20007;-89
2023/08/28 05:55:50;;;;;;;;;;;;;;;;;;4870638;29;19923;-89
2023/08/28 05:58:15;;;;;;;;;;;;;;;;;;4854982;29;19926;-87
2023/08/28 06:00:48;;;;;;;;;;;;;;;;;;4853453;29;19934;-89
2023/08/28 06:03:13;;;;;;;;;;;;;;;;;;4853454;29;20379;-89
2023/08/28 06:05:39;;;;;;;;;;;;;;;;;;4851445;29;19998;-88
2023/08/28 06:08:05;;;;;;;;;;;;;;;;;;4851843;29;19924;-83
2023/08/28 06:10:30;;;;;;;;;;;;;;;;;;4856069;29;20025;-82
2023/08/28 06:12:57;;;;;;;;;;;;;;;;;;4864438;29;19919;-82
2023/08/28 06:15:22;;;;;;;;;;;;;;;;;;4858192;29;19923;-83
2023/08/28 06:17:48;;;;;;;;;;;;;;;;;;4856344;29;19999;-83
2023/08/28 06:20:13;;;;;;;;;;;;;;;;;;4862074;29;20289;-83
2023/08/28 06:22:40;;;;;;;;;;;;;;;;;;4861419;29;19979;-83
2023/08/28 06:25:15;;;;;;;;;;;;;;;;;;4855215;29;19916;-82
2023/08/28 06:27:40;;;;;;;;;;;;;;;;;;4842970;29;20377;-83
2023/08/28 06:30:06;;;;;;;;;;;;;;;;;;4858659;29;19971;-84
2023/08/28 06:32:32;;;;;;;;;;;;;;;;;;4846886;29;20039;-83
2023/08/28 06:34:57;;;;;;;;;;;;;;;;;;4823194;29;20002;-83
2023/08/28 06:37:24;;;;;;;;;;;;;;;;;;4862377;29;19926;-83
2023/08/28 06:39:49;;;;;;;;;;;;;;;;;;4875468;29;20313;-83
2023/08/28 06:42:15;;;;;;;;;;;;;;;;;;4859891;29;19928;-83
2023/08/28 06:44:40;;;;;;;;;;;;;;;;;;4850230;29;19927;-82
2023/08/28 06:47:05;;;;;;;;;;;;;;;;;;4833398;29;19949;-83
2023/08/28 06:49:43;;;;;;;;;;;;;;;;;;4835144;29;19926;-83
2023/08/28 06:52:13;;;;;;;;;;;;;;;;;;4836597;29;20813;-83
2023/08/28 06:54:38;;;;;;;;;;;;;;;;;;4852149;29;19984;-82
2023/08/28 06:57:04;;;;;;;;;;;;;;;;;;4865533;29;19928;-82
2023/08/28 06:59:29;;;;;;;;;;;;;;;;;;4849701;29;19940;-83
2023/08/28 07:01:54;;;;;;;;;;;;;;;;;;4867729;29;20268;-83
2023/08/28 07:04:23;;;;;;;;;;;;;;;;;;4855898;29;19971;-83
2023/08/28 07:06:48;;;;;;;;;;;;;;;;;;4853354;29;19924;-83
2023/08/28 07:09:13;;;;;;;;;;;;;;;;;;4869061;29;19927;-88
2023/08/28 07:11:39;;;;;;;;;;;;;;;;;;4849004;29;19924;-87
2023/08/28 07:14:05;;;;;;;;;;;;;;;;;;4853793;29;19920;-86
2023/08/28 07:16:30;;;;;;;;;;;;;;;;;;4851024;29;20002;-88
2023/08/28 07:18:56;;;;;;;;;;;;;;;;;;4849508;29;20010;-86
2023/08/28 07:21:21;;;;;;;;;;;;;;;;;;4851954;29;19954;-87
2023/08/28 07:23:46;;;;;;;;;;;;;;;;;;4844888;29;19920;-87
2023/08/28 07:26:11;;;;;;;;;;;;;;;;;;4858840;29;19926;-86
2023/08/28 07:28:37;;;;;;;;;;;;;;;;;;4851733;29;19916;-88
2023/08/28 07:31:05;;;;;;;;;;;;;;;;;;4867114;29;19937;-87
2023/08/28 07:33:30;;;;;;;;;;;;;;;;;;4855914;29;19920;-87
2023/08/28 07:35:55;;;;;;;;;;;;;;;;;;4847296;29;19944;-86
2023/08/28 07:38:21;;;;;;;;;;;;;;;;;;4848530;29;20008;-88
2023/08/28 07:40:47;;;;;;;;;;;;;;;;;;4870059;29;19920;-87
2023/08/28 07:43:12;;;;;;;;;;;;;;;;;;4849218;29;19919;-85
2023/08/28 07:45:37;;;;;;;;;;;;;;;;;;4853222;29;19926;-86
2023/08/28 07:48:03;;;;;;;;;;;;;;;;;;4849677;29;20396;-89
2023/08/28 07:50:29;;;;;;;;;;;;;;;;;;4842667;29;19966;-88
2023/08/28 07:52:54;;;;;;;;;;;;;;;;;;4858629;29;19924;-86
2023/08/28 07:55:20;;;;;;;;;;;;;;;;;;4832354;29;19919;-86
2023/08/28 07:57:45;;;;;;;;;;;;;;;;;;4852775;29;20274;-85
2023/08/28 08:00:13;;;;;;;;;;;;;;;;;;4848829;29;20388;-87
2023/08/28 08:02:39;;;;;;;;;;;;;;;;;;4859219;29;19932;-87
2023/08/28 08:05:15;;;;;;;;;;;;;;;;;;4877783;29;19926;-84
2023/08/28 08:07:40;;;;;;;;;;;;;;;;;;4847313;29;19935;-86
2023/08/28 08:10:09;;;;;;;;;;;;;;;;;;4843541;29;20283;-87
2023/08/28 08:12:34;;;;;;;;;;;;;;;;;;4857489;29;20327;-87
2023/08/28 08:15:00;;;;;;;;;;;;;;;;;;4843534;29;19927;-88
2023/08/28 08:17:25;;;;;;;;;;;;;;;;;;4850558;29;19927;-87
2023/08/28 08:19:50;;;;;;;;;;;;;;;;;;4842675;29;19960;-87
2023/08/28 08:22:15;;;;;;;;;;;;;;;;;;4849621;29;19915;-86
2023/08/28 08:24:48;;;;;;;;;;;;;;;;;;4847820;29;20444;-86
2023/08/28 08:27:17;;;;;;;;;;;;;;;;;;4856618;29;20287;-85
2023/08/28 08:29:44;;;;;;;;;;;;;;;;;;4848771;29;20522;-87
2023/08/28 08:32:09;;;;;;;;;;;;;;;;;;4853343;29;19951;-82
2023/08/28 08:34:35;;;;;;;;;;;;;;;;;;4864064;29;19919;-86
2023/08/28 08:37:00;;;;;;;;;;;;;;;;;;4845540;29;20254;-86
2023/08/28 08:39:25;;;;;;;;;;;;;;;;;;4841514;29;19942;-87
2023/08/28 08:41:51;;;;;;;;;;;;;;;;;;4842639;29;19979;-86
2023/08/28 08:44:19;;;;;;;;;;;;;;;;;;4844099;29;19916;-88
2023/08/28 08:46:45;;;;;;;;;;;;;;;;;;4848753;29;20399;-87
2023/08/28 08:49:12;;;;;;;;;;;;;;;;;;4860037;29;20675;-88
2023/08/28 08:51:37;;;;;;;;;;;;;;;;;;4848308;29;19926;-88
2023/08/28 08:54:06;;;;;;;;;;;;;;;;;;4846980;29;19926;-88
2023/08/28 08:56:32;;;;;;;;;;;;;;;;;;4868459;29;19998;-87
2023/08/28 08:58:58;;;;;;;;;;;;;;;;;;4842993;29;20019;-86
2023/08/28 09:01:28;;;;;;;;;;;;;;;;;;4847558;29;19936;-88
2023/08/28 09:03:54;;;;;;;;;;;;;;;;;;4834137;29;21282;-87
2023/08/28 09:06:20;;;;;;;;;;;;;;;;;;4866621;29;20568;-87
2023/08/28 09:08:45;;;;;;;;;;;;;;;;;;4864055;29;19920;-88
2023/08/28 09:11:11;;;;;;;;;;;;;;;;;;4863019;29;19924;-88
2023/08/28 09:13:37;;;;;;;;;;;;;;;;;;4852652;29;19959;-88
2023/08/28 09:16:08;;;;;;;;;;;;;;;;;;4845894;29;20004;-88
2023/08/28 09:18:34;;;;;;;;;;;;;;;;;;4845157;29;19963;-87
2023/08/28 09:21:08;;;;;;;;;;;;;;;;;;4842376;29;20299;-89
2023/08/28 09:23:34;;;;;;;;;;;;;;;;;;4847545;29;19919;-89
2023/08/28 09:26:00;;;;;;;;;;;;;;;;;;4869182;29;19927;-89
2023/08/28 09:28:26;;;;;;;;;;;;;;;;;;4848502;29;19923;-88
2023/08/28 09:30:51;;;;;;;;;;;;;;;;;;4863875;29;19948;-87
2023/08/28 09:33:24;;;;;;;;;;;;;;;;;;4849200;29;19920;-88
2023/08/28 09:35:50;;;;;;;;;;;;;;;;;;4844323;29;19919;-86
2023/08/28 09:38:15;;;;;;;;;;;;;;;;;;4836753;29;20447;-87
2023/08/28 09:40:41;;;;;;;;;;;;;;;;;;4848792;29;20439;-85
2023/08/28 09:43:12;;;;;;;;;;;;;;;;;;4867241;29;19967;-88
2023/08/28 09:45:37;;;;;;;;;;;;;;;;;;4846793;29;19916;-87
2023/08/28 09:48:03;;;;;;;;;;;;;;;;;;4846936;29;19924;-87
2023/08/28 09:50:29;;;;;;;;;;;;;;;;;;4863862;29;19920;-87
2023/08/28 09:52:54;;;;;;;;;;;;;;;;;;4842420;29;20384;-86
2023/08/28 09:55:20;;;;;;;;;;;;;;;;;;4840094;29;20018;-88
2023/08/28 09:57:45;;;;;;;;;;;;;;;;;;4834337;29;19963;-87
2023/08/28 10:00:11;;;;;;;;;;;;;;;;;;4862025;29;19930;-86
2023/08/28 10:02:37;;;;;;;;;;;;;;;;;;4830450;29;19935;-86
2023/08/28 10:05:03;;;;;;;;;;;;;;;;;;4838465;29;19919;-86
2023/08/28 10:07:28;;;;;;;;;;;;;;;;;;4839145;29;20023;-86
2023/08/28 10:10:04;;;;;;;;;;;;;;;;;;;;;
2023/08/28 10:12:36;;;;;;;;;;;;;;;;;;4855571;29;20547;-89
2023/08/28 10:15:01;;;;;;;;;;;;;;;;;;4848160;29;19920;-84
2023/08/28 10:17:27;;;;;;;;;;;;;;;;;;4843221;29;19992;-84
2023/08/28 10:19:57;;;;;;;;;;;;;;;;;;4844013;29;20455;-85
2023/08/28 10:22:23;;;;;;;;;;;;;;;;;;4861788;29;19919;-83
2023/08/28 10:24:48;;;;;;;;;;;;;;;;;;4849859;29;19920;-84
2023/08/28 10:27:14;;;;;;;;;;;;;;;;;;4828088;29;19955;-84
2023/08/28 10:29:43;;;;;;;;;;;;;;;;;;4859126;29;19920;-83
2023/08/28 10:32:17;;;;;;;;;;;;;;;;;;4850460;29;20372;-83
2023/08/28 10:34:43;;;;;;;;;;;;;;;;;;4850821;29;19955;-85
2023/08/28 10:37:08;;;;;;;;;;;;;;;;;;4867314;29;20023;-84
2023/08/28 10:39:35;;;;;;;;;;;;;;;;;;4849395;29;20430;-85
2023/08/28 10:42:01;;;;;;;;;;;;;;;;;;4849793;29;19923;-85
2023/08/28 10:44:26;;;;;;;;;;;;;;;;;;4866223;29;19960;-85
2023/08/28 10:47:03;;;;;;;;;;;;;;;;;;4848254;29;20415;-83
2023/08/28 10:49:28;;;;;;;;;;;;;;;;;;4861105;29;20304;-79
2023/08/28 10:52:00;;;;;;;;;;;;;;;;;;4867969;29;19923;-80
2023/08/28 10:54:26;;;;;;;;;;;;;;;;;;4854890;29;19916;-80
2023/08/28 10:56:53;;;;;;;;;;;;;;;;;;4847473;29;20375;-80
2023/08/28 10:59:25;;;;;;;;;;;;;;;;;;4840026;29;19920;-80
2023/08/28 11:01:57;;;;;;;;;;;;;;;;;;4852585;29;19931;-81
2023/08/28 11:04:23;;;;;;;;;;;;;;;;;;4855951;29;20285;-80
2023/08/28 11:06:48;;;;;;;;;;;;;;;;;;4848644;29;20365;-79
2023/08/28 11:09:25;;;;;;;;;;;;;;;;;;4848357;29;19924;-79
2023/08/28 11:11:51;;;;;;;;;;;;;;;;;;4862860;29;20011;-80
2023/08/28 11:14:16;;;;;;;;;;;;;;;;;;4850322;29;20549;-84
2023/08/28 11:16:41;;;;;;;;;;;;;;;;;;4840717;29;20073;-83
2023/08/28 11:19:07;;;;;;;;;;;;;;;;;;4863070;29;20643;-84
2023/08/28 11:21:44;;;;;;;;;;;;;;;;;;4852106;29;20292;-83
2023/08/28 11:24:30;;;;;;;;;;;;;;;;;;4853369;29;19926;-84
2023/08/28 11:26:56;;;;;;;;;;;;;;;;;;4864410;29;19919;-84
2023/08/28 11:29:27;;;;;;;;;;;;;;;;;;4867406;29;19924;-84
2023/08/28 11:31:53;;;;;;;;;;;;;;;;;;4868199;29;19919;-84
2023/08/28 11:34:18;;;;;;;;;;;;;;;;;;4848822;29;19920;-84
2023/08/28 11:36:45;;;;;;;;;;;;;;;;;;4847840;29;20402;-84
2023/08/28 11:39:23;;;;;;;;;;;;;;;;;;4851142;29;19920;-80
2023/08/28 11:41:48;;;;;;;;;;;;;;;;;;4865725;29;19919;-81
2023/08/28 11:44:14;;;;;;;;;;;;;;;;;;4851856;29;19983;-81
2023/08/28 11:46:39;;;;;;;;;;;;;;;;;;4846980;29;19970;-82
2023/08/28 11:49:07;;;;;;;;;;;;;;;;;;4849885;29;19920;-83
2023/08/28 11:51:32;;;;;;;;;;;;;;;;;;4853667;29;20338;-82
2023/08/28 11:53:58;;;;;;;;;;;;;;;;;;4851250;29;19924;-84
2023/08/28 11:56:23;;;;;;;;;;;;;;;;;;4868743;29;20008;-84
2023/08/28 11:58:49;;;;;;;;;;;;;;;;;;4847883;29;20011;-83
2023/08/28 12:01:15;;;;;;;;;;;;;;;;;;4868221;29;19928;-84
2023/08/28 12:03:41;;;;;;;;;;;;;;;;;;4849106;29;20014;-83
2023/08/28 12:06:07;;;;;;;;;;;;;;;;;;4866799;29;20272;-84
2023/08/28 12:08:36;;;;;;;;;;;;;;;;;;4867025;29;19924;-83
2023/08/28 12:11:02;;;;;;;;;;;;;;;;;;4867617;29;19920;-84
2023/08/28 12:13:27;;;;;;;;;;;;;;;;;;4869380;29;19948;-83
2023/08/28 12:16:04;;;;;;;;;;;;;;;;;;4846595;29;19923;-83
2023/08/28 12:18:41;;;;;;;;;;;;;;;;;;4852191;29;20300;-83
2023/08/28 12:21:07;;;;;;;;;;;;;;;;;;4870413;29;19962;-83
2023/08/28 12:23:32;;;;;;;;;;;;;;;;;;4856991;29;19919;-83
2023/08/28 12:25:57;;;;;;;;;;;;;;;;;;4861421;29;19920;-83
2023/08/28 12:28:23;;;;;;;;;;;;;;;;;;4868790;29;19920;-82
2023/08/28 12:30:51;;;;;;;;;;;;;;;;;;4838066;29;19927;-82
2023/08/28 12:33:16;;;;;;;;;;;;;;;;;;4856632;29;19971;-83
2023/08/28 12:35:41;;;;;;;;;;;;;;;;;;4867847;29;19923;-83
2023/08/28 12:38:07;;;;;;;;;;;;;;;;;;4846583;29;20007;-84
2023/08/28 12:40:42;;;;;;;;;;;;;;;;;;4864073;29;19946;-83
2023/08/28 12:43:10;;;;;;;;;;;;;;;;;;4841828;29;20384;-83
2023/08/28 12:45:36;;;;;;;;;;;;;;;;;;4857861;29;19954;-83
2023/08/28 12:48:01;;;;;;;;;;;;;;;;;;4849569;29;20412;-83
2023/08/28 12:50:35;;;;;;;;;;;;;;;;;;4850968;29;20424;-82
2023/08/28 12:53:00;;;;;;;;;;;;;;;;;;4836964;29;20292;-83
2023/08/28 12:55:25;;;;;;;;;;;;;;;;;;4870932;29;19920;-83
2023/08/28 12:57:51;;;;;;;;;;;;;;;;;;4863532;29;19920;-83
2023/08/28 13:00:16;;;;;;;;;;;;;;;;;;4845866;29;19920;-84
2023/08/28 13:02:42;;;;;;;;;;;;;;;;;;4844253;29;19920;-84
2023/08/28 13:05:11;;;;;;;;;;;;;;;;;;4865855;29;19920;-83
2023/08/28 13:07:37;;;;;;;;;;;;;;;;;;4846766;29;19924;-84
2023/08/28 13:10:04;;;;;;;;;;;;;;;;;;4846802;29;19942;-82
2023/08/28 13:12:29;;;;;;;;;;;;;;;;;;4845833;29;20092;-82
2023/08/28 13:14:58;;;;;;;;;;;;;;;;;;4857680;29;20412;-82
2023/08/28 13:17:23;;;;;;;;;;;;;;;;;;4846824;29;19920;-83
2023/08/28 13:19:48;;;;;;;;;;;;;;;;;;4838283;29;19927;-83
2023/08/28 13:22:14;;;;;;;;;;;;;;;;;;4872842;29;19967;-82
2023/08/28 13:24:45;;;;;;;;;;;;;;;;;;4866550;29;20277;-82
2023/08/28 13:27:11;;;;;;;;;;;;;;;;;;4850486;29;20282;-82
2023/08/28 13:29:36;;;;;;;;;;;;;;;;;;4849531;29;20003;-81
2023/08/28 13:32:03;;;;;;;;;;;;;;;;;;4845672;29;19927;-82
2023/08/28 13:34:31;;;;;;;;;;;;;;;;;;4856981;29;20373;-82
2023/08/28 13:36:59;;;;;;;;;;;;;;;;;;4854909;29;19920;-82
2023/08/28 13:39:25;;;;;;;;;;;;;;;;;;4871188;29;19928;-82
2023/08/28 13:41:50;;;;;;;;;;;;;;;;;;4852518;29;20352;-82
2023/08/28 13:44:18;;;;;;;;;;;;;;;;;;4851261;29;20360;-83
2023/08/28 13:46:43;;;;;;;;;;;;;;;;;;4851716;29;19924;-82
2023/08/28 13:49:08;;;;;;;;;;;;;;;;;;4854774;29;20311;-82
2023/08/28 13:51:34;;;;;;;;;;;;;;;;;;4869970;29;19920;-82
2023/08/28 13:53:59;;;;;;;;;;;;;;;;;;4871517;29;19972;-83
2023/08/28 13:56:27;;;;;;;;;;;;;;;;;;4856515;29;19924;-82
2023/08/28 13:58:52;;;;;;;;;;;;;;;;;;4865849;29;20459;-82
2023/08/28 14:01:18;;;;;;;;;;;;;;;;;;4852237;29;19932;-84
2023/08/28 14:03:43;;;;;;;;;;;;;;;;;;4853598;29;19922;-81
2023/08/28 14:06:08;;;;;;;;;;;;;;;;;;4839442;29;19927;-82
2023/08/28 14:08:34;;;;;;;;;;;;;;;;;;4864839;29;20351;-82
2023/08/28 14:11:05;;;;;;;;;;;;;;;;;;4854152;29;19920;-83
2023/08/28 14:13:30;;;;;;;;;;;;;;;;;;4866899;29;19919;-83
2023/08/28 14:15:55;;;;;;;;;;;;;;;;;;4867223;29;19920;-83
2023/08/28 14:18:21;;;;;;;;;;;;;;;;;;4868914;29;19970;-83
2023/08/28 14:20:52;;;;;;;;;;;;;;;;;;4863730;29;20002;-83
2023/08/28 14:23:17;;;;;;;;;;;;;;;;;;4843160;29;20674;-83
2023/08/28 14:25:43;;;;;;;;;;;;;;;;;;4843569;29;20027;-83
2023/08/28 14:28:08;;;;;;;;;;;;;;;;;;4842930;29;20289;-83
2023/08/28 14:30:34;;;;;;;;;;;;;;;;;;4865304;29;19916;-83
2023/08/28 14:33:01;;;;;;;;;;;;;;;;;;4853101;29;20416;-83
2023/08/28 14:35:27;;;;;;;;;;;;;;;;;;4842104;29;20383;-83
2023/08/28 14:37:52;;;;;;;;;;;;;;;;;;4842849;29;19919;-83
2023/08/28 14:40:18;;;;;;;;;;;;;;;;;;4856573;29;19919;-83
2023/08/28 14:42:45;;;;;;;;;;;;;;;;;;4870612;29;20462;-83
2023/08/28 14:45:11;;;;;;;;;;;;;;;;;;4853544;29;20375;-81
2023/08/28 14:47:39;;;;;;;;;;;;;;;;;;4851245;29;19924;-82
2023/08/28 14:50:05;;;;;;;;;;;;;;;;;;4852897;29;19971;-82
2023/08/28 14:52:30;;;;;;;;;;;;;;;;;;4866771;29;20429;-83
2023/08/28 14:54:55;;;;;;;;;;;;;;;;;;4851950;29;20111;-82
2023/08/28 14:57:21;;;;;;;;;;;;;;;;;;4851467;29;20377;-83
2023/08/28 14:59:46;;;;;;;;;;;;;;;;;;4838566;29;19938;-78
2023/08/28 15:02:12;;;;;;;;;;;;;;;;;;4859616;29;20008;-78
2023/08/28 15:04:38;;;;;;;;;;;;;;;;;;4852183;29;19920;-82
2023/08/28 15:07:09;;;;;;;;;;;;;;;;;;4869614;29;19946;-81
2023/08/28 15:09:34;;;;;;;;;;;;;;;;;;4845107;29;20391;-81
2023/08/28 15:11:59;;;;;;;;;;;;;;;;;;4844686;29;19920;-80
2023/08/28 15:14:26;;;;;;;;;;;;;;;;;;4868129;29;19924;-80
2023/08/28 15:16:51;;;;;;;;;;;;;;;;;;4863999;29;20404;-80
2023/08/28 15:19:20;;;;;;;;;;;;;;;;;;4855990;29;19998;-80
2023/08/28 15:21:45;;;;;;;;;;;;;;;;;;4839510;29;19960;-82
2023/08/28 15:24:10;;;;;;;;;;;;;;;;;;4851284;29;20356;-82
2023/08/28 15:26:36;;;;;;;;;;;;;;;;;;4841015;29;19923;-81
2023/08/28 15:29:01;;;;;;;;;;;;;;;;;;4866816;29;19916;-81
2023/08/28 15:31:26;;;;;;;;;;;;;;;;;;4854024;29;19959;-80
2023/08/28 15:33:52;;;;;;;;;;;;;;;;;;4864240;29;19947;-84
2023/08/28 15:36:17;;;;;;;;;;;;;;;;;;4850010;29;20329;-82
2023/08/28 15:38:42;;;;;;;;;;;;;;;;;;4850332;29;20468;-82
2023/08/28 15:41:07;;;;;;;;;;;;;;;;;;4868197;29;19955;-82
2023/08/28 15:43:33;;;;;;;;;;;;;;;;;;4862634;29;19916;-82
2023/08/28 15:45:59;;;;;;;;;;;;;;;;;;4864240;29;20006;-82
2023/08/28 15:48:24;;;;;;;;;;;;;;;;;;4846998;29;19924;-83
2023/08/28 15:50:50;;;;;;;;;;;;;;;;;;4849715;29;19947;-82
2023/08/28 15:53:15;;;;;;;;;;;;;;;;;;4841653;29;19983;-82
2023/08/28 15:55:40;;;;;;;;;;;;;;;;;;4849506;29;19923;-82
2023/08/28 15:58:06;;;;;;;;;;;;;;;;;;4868975;29;20008;-82
2023/08/28 16:00:31;;;;;;;;;;;;;;;;;;4849809;29;20179;-82
2023/08/28 16:02:56;;;;;;;;;;;;;;;;;;4864837;29;19927;-83
2023/08/28 16:05:21;;;;;;;;;;;;;;;;;;4855986;29;20704;-82
2023/08/28 16:07:47;;;;;;;;;;;;;;;;;;4850389;29;19976;-82
2023/08/28 16:10:12;;;;;;;;;;;;;;;;;;4875287;29;19926;-82
2023/08/28 16:12:37;;;;;;;;;;;;;;;;;;4852542;29;19920;-81
2023/08/28 16:15:03;;;;;;;;;;;;;;;;;;4854174;29;20295;-82
2023/08/28 16:17:28;;;;;;;;;;;;;;;;;;4844054;29;19962;-83
2023/08/28 16:19:54;;;;;;;;;;;;;;;;;;4850608;29;19959;-84
2023/08/28 16:22:19;;;;;;;;;;;;;;;;;;4853208;29;20007;-83
2023/08/28 16:24:47;;;;;;;;;;;;;;;;;;4874199;29;19944;-83
2023/08/28 16:27:13;;;;;;;;;;;;;;;;;;4849246;29;19966;-83
2023/08/28 16:29:38;;;;;;;;;;;;;;;;;;4849346;29;20407;-83
2023/08/28 16:32:04;;;;;;;;;;;;;;;;;;4850494;29;19926;-83
2023/08/28 16:34:29;;;;;;;;;;;;;;;;;;4854817;29;19919;-83
2023/08/28 16:36:54;;;;;;;;;;;;;;;;;;4849164;29;19974;-83
2023/08/28 16:39:20;;;;;;;;;;;;;;;;;;4850370;29;20490;-83
2023/08/28 16:41:45;;;;;;;;;;;;;;;;;;4849025;29;20401;-83